createdAt,value
2022-10-19T00:00:10.219Z,100248.36
2022-10-19T00:02:41.067Z,100240.86
2022-10-19T00:05:10.453Z,100228.08
2022-10-19T00:07:40.517Z,100230.52
2022-10-19T00:10:11.658Z,100232.10
2022-10-19T00:12:40.792Z,100223.55
2022-10-19T00:15:11.011Z,100218.89
2022-10-19T00:17:39.845Z,100213.39
2022-10-19T00:20:11.138Z,100214.45
2022-10-19T00:22:40.300Z,100203.67
2022-10-19T00:25:10.026Z,100202.52
2022-10-19T00:27:40.434Z,100195.86
2022-10-19T00:30:09.831Z,100192.48
2022-10-19T00:32:39.046Z,100184.77
2022-10-19T00:35:09.422Z,100176.73
2022-10-19T00:37:38.305Z,100174.64
2022-10-19T00:40:09.117Z,100170.95
2022-10-19T00:42:37.912Z,100163.45
2022-10-19T00:45:12.132Z,100160.70
2022-10-19T00:47:42.845Z,100158.80
2022-10-19T00:50:11.426Z,100160.27
2022-10-19T00:52:40.047Z,100147.16
2022-10-19T00:55:09.740Z,100143.04
2022-10-19T00:57:38.748Z,100139.55
2022-10-19T01:00:08.714Z,100129.70
2022-10-19T01:02:37.721Z,100130.34
2022-10-19T01:05:07.609Z,100120.28
2022-10-19T01:07:36.949Z,100123.44
2022-10-19T01:10:07.756Z,100117.50
2022-10-19T01:12:57.158Z,100112.85
2022-10-19T01:15:35.785Z,100114.41
2022-10-19T01:18:34.890Z,100109.32
2022-10-19T01:21:26.038Z,100106.13
2022-10-19T01:24:28.044Z,100099.88
2022-10-19T01:27:34.923Z,100098.30
2022-10-19T01:30:15.295Z,100097.77
2022-10-19T01:32:55.121Z,100099.45
2022-10-19T01:35:52.192Z,100100.82
2022-10-19T01:38:38.638Z,100089.52
2022-10-19T01:41:34.443Z,100088.14
2022-10-19T01:44:19.020Z,100093.33
2022-10-19T01:47:01.009Z,100087.20
2022-10-19T01:49:43.031Z,100086.36
2022-10-19T01:52:14.558Z,100080.23
2022-10-19T01:54:49.754Z,100080.67
2022-10-19T01:57:30.464Z,100069.90
2022-10-19T02:00:02.809Z,100067.16
2022-10-19T02:02:37.472Z,100068.34
2022-10-19T02:05:08.042Z,100060.00
2022-10-19T02:07:38.199Z,100066.78
2022-10-19T02:10:08.737Z,100063.41
2022-10-19T02:12:38.446Z,100058.97
2022-10-19T02:15:11.405Z,100060.57
2022-10-19T02:17:44.617Z,100060.79
2022-10-19T02:20:14.900Z,100056.57
2022-10-19T02:22:44.069Z,100055.10
2022-10-19T02:25:12.768Z,100051.73
2022-10-19T02:27:42.875Z,100052.48
2022-10-19T02:30:14.347Z,100047.42
2022-10-19T02:32:44.469Z,100041.70
2022-10-19T02:35:13.709Z,100054.81
2022-10-19T02:37:43.493Z,100055.78
2022-10-19T02:40:12.557Z,100062.77
2022-10-19T02:42:58.350Z,100058.24
2022-10-19T02:45:33.442Z,100057.93
2022-10-19T02:48:09.253Z,100061.73
2022-10-19T02:50:38.293Z,100059.20
2022-10-19T02:53:07.230Z,100052.24
2022-10-19T02:55:37.711Z,100053.83
2022-10-19T02:58:08.046Z,100049.30
2022-10-19T03:00:38.643Z,100047.93
2022-10-19T03:03:07.480Z,100052.80
2022-10-19T03:05:41.822Z,100056.59
2022-10-19T03:08:10.628Z,100049.42
2022-10-19T03:10:39.924Z,100034.66
2022-10-19T03:13:08.697Z,100029.38
2022-10-19T03:15:37.667Z,100023.89
2022-10-19T03:18:06.789Z,100028.31
2022-10-19T03:20:35.888Z,100032.12
2022-10-19T03:23:06.192Z,100021.14
2022-10-19T03:25:36.366Z,100022.83
2022-10-19T03:28:05.712Z,100037.41
2022-10-19T03:30:37.415Z,100027.26
2022-10-19T03:33:06.390Z,100030.00
2022-10-19T03:35:36.018Z,100030.31
2022-10-19T03:38:05.149Z,100022.61
2022-10-19T03:40:34.078Z,100022.08
2022-10-19T03:43:03.473Z,100019.96
2022-10-19T03:45:32.383Z,100011.73
2022-10-19T03:48:01.965Z,100005.17
2022-10-19T03:50:31.609Z,99996.72
2022-10-19T03:53:00.900Z,99992.69
2022-10-19T03:55:31.285Z,100000.72
2022-10-19T03:58:00.001Z,100006.52
2022-10-19T04:00:28.855Z,100014.97
2022-10-19T04:02:57.489Z,99999.88
2022-10-19T04:05:26.376Z,100013.70
2022-10-19T04:07:55.142Z,100004.71
2022-10-19T04:10:25.499Z,100012.42
2022-10-19T04:12:54.236Z,100022.03
2022-10-19T04:15:23.075Z,100027.22
2022-10-19T04:17:52.166Z,100031.33
2022-10-19T04:20:21.187Z,100026.05
2022-10-19T04:22:51.667Z,100027.42
2022-10-19T04:25:20.568Z,100018.66
2022-10-19T04:27:50.011Z,100027.74
2022-10-19T04:30:20.491Z,100028.27
2022-10-19T04:32:49.556Z,100023.84
2022-10-19T04:35:20.592Z,100027.96
2022-10-19T04:37:49.628Z,100016.13
2022-10-19T04:40:18.773Z,100018.97
2022-10-19T04:42:47.874Z,100013.80
2022-10-19T04:45:16.946Z,100009.36
2022-10-19T04:47:45.768Z,100026.78
2022-10-19T04:50:14.826Z,100019.16
2022-10-19T04:52:45.473Z,99997.19
2022-10-19T04:55:14.101Z,100020.84
2022-10-19T04:57:44.197Z,100011.02
2022-10-19T05:00:14.779Z,100012.92
2022-10-19T05:02:46.100Z,100009.02
2022-10-19T05:05:16.406Z,100013.80
2022-10-19T05:07:45.275Z,100016.23
2022-10-19T05:10:14.642Z,100026.68
2022-10-19T05:12:44.672Z,100034.70
2022-10-19T05:15:14.316Z,100045.38
2022-10-19T05:17:42.911Z,100057.42
2022-10-19T05:20:12.489Z,100058.70
2022-10-19T05:22:41.595Z,100063.34
2022-10-19T05:25:12.281Z,100071.27
2022-10-19T05:27:42.441Z,100078.45
2022-10-19T05:30:13.943Z,100067.56
2022-10-19T05:32:44.629Z,100050.24
2022-10-19T05:35:15.473Z,100054.36
2022-10-19T05:37:45.235Z,100054.67
2022-10-19T05:40:15.847Z,100050.03
2022-10-19T05:42:46.465Z,100053.50
2022-10-19T05:45:16.017Z,100066.80
2022-10-19T05:47:46.908Z,100085.28
2022-10-19T05:50:16.753Z,100096.58
2022-10-19T05:52:45.604Z,100100.27
2022-10-19T05:55:15.315Z,100098.67
2022-10-19T05:57:44.616Z,100093.81
2022-10-19T06:00:14.654Z,100080.30
2022-10-19T06:02:45.156Z,100077.23
2022-10-19T06:05:15.131Z,100090.53
2022-10-19T06:07:46.006Z,100097.72
2022-10-19T06:10:17.181Z,100100.38
2022-10-19T06:12:45.997Z,100106.19
2022-10-19T06:15:15.534Z,100108.93
2022-10-19T06:17:44.616Z,100102.38
2022-10-19T06:20:13.585Z,100105.44
2022-10-19T06:22:44.111Z,100098.66
2022-10-19T06:25:17.935Z,100103.19
2022-10-19T06:27:49.182Z,100110.06
2022-10-19T06:30:22.229Z,100114.93
2022-10-19T06:32:51.981Z,100117.99
2022-10-19T06:35:20.863Z,100113.44
2022-10-19T06:37:50.218Z,100120.72
2022-10-19T06:40:19.572Z,100121.77
2022-10-19T06:42:48.852Z,100131.17
2022-10-19T06:45:18.656Z,100135.40
2022-10-19T06:50:17.562Z,100136.86
2022-10-19T06:52:46.637Z,100141.52
2022-10-19T06:55:17.598Z,100137.08
2022-10-19T06:57:46.461Z,100143.42
2022-10-19T07:00:15.672Z,100143.11
2022-10-19T07:02:44.368Z,100147.55
2022-10-19T07:05:15.871Z,100148.08
2022-10-19T07:07:46.500Z,100152.73
2022-10-19T07:10:16.260Z,100153.79
2022-10-19T07:12:48.153Z,100159.81
2022-10-19T07:15:20.477Z,100155.80
2022-10-19T07:17:49.647Z,100164.98
2022-10-19T07:20:20.053Z,100163.60
2022-10-19T07:22:50.156Z,100159.05
2022-10-19T07:25:19.504Z,100159.14
2022-10-19T07:27:48.912Z,100159.23
2022-10-19T07:30:18.310Z,100153.30
2022-10-19T07:32:47.867Z,100156.99
2022-10-19T07:35:19.476Z,100148.41
2022-10-19T07:37:48.549Z,100141.50
2022-10-19T07:40:17.961Z,100144.22
2022-10-19T07:42:47.496Z,100139.02
2022-10-19T07:45:16.667Z,100148.70
2022-10-19T07:47:45.847Z,100150.69
2022-10-19T07:50:16.575Z,100147.15
2022-10-19T07:52:46.933Z,100135.03
2022-10-19T07:55:16.033Z,100142.70
2022-10-19T07:57:49.773Z,100131.25
2022-10-19T08:00:19.613Z,100132.41
2022-10-19T08:03:00.105Z,100133.47
2022-10-19T08:05:21.115Z,100130.63
2022-10-19T08:07:50.937Z,100127.17
2022-10-19T08:10:20.548Z,100127.17
2022-10-19T08:12:49.541Z,100124.73
2022-10-19T08:15:18.703Z,100129.39
2022-10-19T08:17:48.674Z,100122.73
2022-10-19T08:20:18.209Z,100114.62
2022-10-19T08:22:46.812Z,100125.45
2022-10-19T08:25:16.205Z,100121.45
2022-10-19T08:27:45.979Z,100131.53
2022-10-19T08:30:14.767Z,100117.15
2022-10-19T08:32:43.887Z,100117.46
2022-10-19T08:35:12.574Z,100123.36
2022-10-19T08:37:45.148Z,100119.33
2022-10-19T08:40:25.793Z,100118.56
2022-10-19T08:43:09.838Z,100116.75
2022-10-19T08:45:46.572Z,100116.61
2022-10-19T08:48:25.923Z,100119.31
2022-10-19T08:50:55.326Z,100127.34
2022-10-19T08:53:47.622Z,100128.50
2022-10-19T08:56:51.488Z,100128.41
2022-10-19T08:59:37.163Z,100134.45
2022-10-19T09:02:33.223Z,100144.39
2022-10-19T09:05:07.563Z,100141.11
2022-10-19T09:07:39.706Z,100138.27
2022-10-19T09:10:20.198Z,100145.06
2022-10-19T09:13:41.331Z,100138.41
2022-10-19T09:16:04.359Z,100135.87
2022-10-19T09:18:36.348Z,100129.53
2022-10-19T09:21:20.814Z,100118.92
2022-10-19T09:24:29.890Z,100123.36
2022-10-19T09:27:01.751Z,100125.04
2022-10-19T09:29:38.424Z,100118.64
2022-10-19T09:32:12.557Z,100119.88
2022-10-19T09:34:53.563Z,100116.38
2022-10-19T09:37:26.333Z,100120.28
2022-10-19T09:39:56.014Z,100118.77
2022-10-19T09:42:29.683Z,100111.52
2022-10-19T09:45:05.823Z,100104.83
2022-10-19T09:47:39.995Z,100104.69
2022-10-19T09:50:20.174Z,100101.32
2022-10-19T09:52:57.429Z,100100.39
2022-10-19T09:55:45.767Z,100097.44
2022-10-19T09:58:18.486Z,100104.69
2022-10-19T10:00:54.816Z,100098.03
2022-10-19T10:03:26.753Z,100095.90
2022-10-19T10:06:06.209Z,100106.77
2022-10-19T10:08:48.420Z,100105.90
2022-10-19T10:11:38.280Z,100099.94
2022-10-19T10:14:31.423Z,100093.98
2022-10-19T10:17:11.698Z,100090.92
2022-10-19T10:20:00.822Z,100084.66
2022-10-19T10:22:36.558Z,100082.21
2022-10-19T10:25:17.033Z,100083.05
2022-10-19T10:28:21.113Z,100081.98
2022-10-19T10:31:07.192Z,100076.48
2022-10-19T10:33:45.081Z,100073.50
2022-10-19T10:36:09.599Z,100079.08
2022-10-19T10:41:38.057Z,100067.32
2022-10-19T10:44:18.717Z,100061.36
2022-10-19T10:46:54.134Z,100067.70
2022-10-19T10:49:38.239Z,100062.73
2022-10-19T10:52:12.734Z,100067.86
2022-10-19T10:55:04.498Z,100065.49
2022-10-19T10:57:40.023Z,100066.03
2022-10-19T11:00:15.676Z,100065.57
2022-10-19T11:03:02.286Z,100064.50
2022-10-19T11:06:00.411Z,100058.22
2022-10-19T11:08:55.504Z,100053.02
2022-10-19T11:11:37.808Z,100045.37
2022-10-19T11:14:39.155Z,100048.20
2022-10-19T11:17:14.840Z,100044.91
2022-10-19T11:19:45.510Z,100053.02
2022-10-19T11:22:29.932Z,100032.97
2022-10-19T11:25:28.755Z,100030.28
2022-10-19T11:28:25.155Z,100029.98
2022-10-19T11:31:10.223Z,100022.86
2022-10-19T11:34:04.144Z,100014.36
2022-10-19T11:36:59.451Z,100021.55
2022-10-19T11:39:54.724Z,100003.88
2022-10-19T11:42:39.277Z,100010.00
2022-10-19T11:45:16.678Z,99996.98
2022-10-19T11:47:59.197Z,99995.91
2022-10-19T11:50:36.666Z,99984.89
2022-10-19T11:53:31.409Z,99983.08
2022-10-19T11:57:01.596Z,99975.11
2022-10-19T11:59:52.640Z,99969.98
2022-10-19T12:02:51.570Z,99964.16
2022-10-19T12:05:33.396Z,99969.14
2022-10-19T12:08:23.692Z,99964.83
2022-10-19T12:11:41.773Z,99966.20
2022-10-19T12:14:20.279Z,99960.49
2022-10-19T12:16:54.893Z,99962.72
2022-10-19T12:19:31.251Z,99957.50
2022-10-19T12:22:02.235Z,99956.80
2022-10-19T12:24:31.287Z,99957.48
2022-10-19T12:27:00.980Z,99941.89
2022-10-19T12:29:35.533Z,99959.47
2022-10-19T12:32:04.892Z,99944.45
2022-10-19T12:35:03.231Z,99941.39
2022-10-19T12:37:49.590Z,99946.30
2022-10-19T12:40:35.799Z,99941.55
2022-10-19T12:43:16.022Z,99936.81
2022-10-19T12:46:05.354Z,99938.19
2022-10-19T12:48:36.193Z,99937.89
2022-10-19T12:51:10.363Z,99942.26
2022-10-19T12:53:49.014Z,99931.23
2022-10-19T12:56:24.673Z,99929.86
2022-10-19T12:58:59.735Z,99927.40
2022-10-19T13:01:40.848Z,99926.63
2022-10-19T13:04:22.612Z,99924.41
2022-10-19T13:07:01.299Z,99926.09
2022-10-19T13:09:43.302Z,99931.00
2022-10-19T13:12:25.878Z,99930.09
2022-10-19T13:15:02.355Z,99924.81
2022-10-19T13:17:50.207Z,99919.23
2022-10-19T13:20:25.852Z,99916.14
2022-10-19T13:23:05.978Z,99918.52
2022-10-19T13:25:42.487Z,99910.19
2022-10-19T13:28:16.520Z,99907.90
2022-10-19T13:30:51.682Z,99905.38
2022-10-19T13:33:31.729Z,99910.78
2022-10-19T13:36:07.451Z,99907.73
2022-10-19T13:38:52.780Z,99900.84
2022-10-19T13:41:39.174Z,99900.30
2022-10-19T13:44:24.806Z,99901.61
2022-10-19T13:50:34.365Z,99901.61
2022-10-19T13:53:32.394Z,99887.53
2022-10-19T13:56:09.972Z,99899.93
2022-10-19T13:59:13.601Z,99888.30
2022-10-19T14:02:11.163Z,99884.40
2022-10-19T14:05:21.330Z,99882.19
2022-10-19T14:08:38.365Z,99886.31
2022-10-19T14:11:29.375Z,99879.05
2022-10-19T14:14:19.529Z,99871.33
2022-10-19T14:16:54.497Z,99873.78
2022-10-19T14:19:47.375Z,99869.64
2022-10-19T14:22:27.634Z,99871.02
2022-10-19T14:25:16.900Z,99863.53
2022-10-19T14:27:48.144Z,99860.94
2022-10-19T14:30:27.404Z,99861.95
2022-10-19T14:32:59.446Z,99866.47
2022-10-19T14:35:36.215Z,99859.14
2022-10-19T14:38:08.931Z,99860.14
2022-10-19T14:40:40.652Z,99852.66
2022-10-19T14:43:28.215Z,99850.13
2022-10-19T14:46:12.597Z,99849.83
2022-10-19T14:48:48.460Z,99855.80
2022-10-19T14:51:29.108Z,99849.69
2022-10-19T14:54:03.397Z,99856.27
2022-10-19T14:56:55.611Z,99847.70
2022-10-19T15:02:18.346Z,99842.96
2022-10-19T15:04:48.052Z,99844.34
2022-10-19T15:07:28.598Z,99834.09
2022-10-19T15:09:59.952Z,99837.61
2022-10-19T15:12:32.503Z,99845.27
2022-10-19T15:15:01.702Z,99841.37
2022-10-19T15:17:31.801Z,99842.44
2022-10-19T15:20:01.087Z,99844.35
2022-10-19T15:22:38.670Z,99850.83
2022-10-19T15:25:13.016Z,99848.00
2022-10-19T15:27:45.601Z,99846.48
2022-10-19T15:30:27.473Z,99851.06
2022-10-19T15:33:02.494Z,99849.38
2022-10-19T15:35:36.387Z,99850.69
2022-10-19T15:38:21.516Z,99856.66
2022-10-19T15:41:00.010Z,99853.06
2022-10-19T15:43:45.987Z,99853.21
2022-10-19T15:46:24.172Z,99856.19
2022-10-19T15:48:55.563Z,99853.67
2022-10-19T15:51:30.154Z,99852.30
2022-10-19T15:54:05.688Z,99850.92
2022-10-19T15:56:39.357Z,99850.61
2022-10-19T15:59:17.371Z,99852.75
2022-10-19T16:01:52.596Z,99855.43
2022-10-19T16:04:21.188Z,99857.80
2022-10-19T16:06:51.215Z,99855.73
2022-10-19T16:09:21.523Z,99865.59
2022-10-19T16:11:52.570Z,99861.08
2022-10-19T16:14:26.166Z,99854.85
2022-10-19T16:17:00.148Z,99856.16
2022-10-19T16:19:31.791Z,99856.69
2022-10-19T16:22:02.486Z,99857.98
2022-10-19T16:24:32.228Z,99853.47
2022-10-19T16:27:02.019Z,99853.92
2022-10-19T16:29:31.045Z,99856.59
2022-10-19T16:32:01.103Z,99863.05
2022-10-19T16:34:30.648Z,99860.52
2022-10-19T16:37:04.253Z,99855.25
2022-10-19T16:39:33.375Z,99861.28
2022-10-19T16:42:03.967Z,99862.89
2022-10-19T16:44:34.548Z,99864.80
2022-10-19T16:47:05.831Z,99856.47
2022-10-19T16:49:36.564Z,99855.23
2022-10-19T16:52:06.287Z,99852.63
2022-10-19T16:54:36.677Z,99851.09
2022-10-19T16:57:09.616Z,99853.98
2022-10-19T16:59:37.267Z,99844.73
2022-10-19T17:02:09.957Z,99845.48
2022-10-19T17:04:40.829Z,99846.55
2022-10-19T17:07:12.729Z,99847.09
2022-10-19T17:09:43.287Z,99844.78
2022-10-19T17:12:14.893Z,99841.87
2022-10-19T17:14:46.999Z,99852.70
2022-10-19T17:17:17.305Z,99843.75
2022-10-19T17:19:48.133Z,99848.85
2022-10-19T17:22:17.675Z,99846.77
2022-10-19T17:24:49.778Z,99846.66
2022-10-19T17:27:19.980Z,99844.66
2022-10-19T17:29:50.670Z,99841.83
2022-10-19T17:32:20.777Z,99848.61
2022-10-19T17:34:50.917Z,99837.22
2022-10-19T17:37:20.558Z,99839.58
2022-10-19T17:39:51.758Z,99840.64
2022-10-19T17:42:23.414Z,99834.97
2022-10-19T17:44:54.719Z,99839.31
2022-10-19T17:47:24.295Z,99834.80
2022-10-19T17:49:54.104Z,99833.02
2022-10-19T17:52:23.260Z,99840.11
2022-10-19T17:55:12.169Z,99846.88
2022-10-19T17:57:26.232Z,99841.61
2022-10-19T17:59:57.325Z,99854.09
2022-10-19T18:02:26.921Z,99850.86
2022-10-19T18:04:57.037Z,99844.34
2022-10-19T18:07:26.477Z,99848.50
2022-10-19T18:09:55.699Z,99855.45
2022-10-19T18:12:26.435Z,99855.36
2022-10-19T18:14:56.149Z,99846.69
2022-10-19T18:17:27.917Z,99846.19
2022-10-19T18:19:57.828Z,99846.63
2022-10-19T18:22:28.853Z,99846.31
2022-10-19T18:24:58.888Z,99849.37
2022-10-19T18:27:31.246Z,99851.30
2022-10-19T18:30:01.163Z,99843.94
2022-10-19T18:32:32.290Z,99855.16
2022-10-19T18:35:02.254Z,99860.25
2022-10-19T18:37:34.730Z,99865.97
2022-10-19T18:40:07.194Z,99860.81
2022-10-19T18:42:37.900Z,99863.77
2022-10-19T18:45:09.451Z,99868.62
2022-10-19T18:47:39.023Z,99871.05
2022-10-19T18:50:10.520Z,99863.75
2022-10-19T18:52:41.053Z,99866.39
2022-10-19T18:55:10.442Z,99863.45
2022-10-19T18:57:40.193Z,99867.47
2022-10-19T19:00:11.152Z,99866.73
2022-10-19T19:02:46.899Z,99869.05
2022-10-19T19:05:14.283Z,99881.81
2022-10-19T19:07:44.646Z,99881.28
2022-10-19T19:10:15.007Z,99880.97
2022-10-19T19:12:45.071Z,99887.92
2022-10-19T19:15:15.023Z,99882.34
2022-10-19T19:17:45.282Z,99883.19
2022-10-19T19:20:15.198Z,99883.82
2022-10-19T19:22:46.096Z,99879.70
2022-10-19T19:25:17.006Z,99879.39
2022-10-19T19:27:47.767Z,99883.72
2022-10-19T19:30:17.041Z,99892.67
2022-10-19T19:32:49.321Z,99890.88
2022-10-19T19:35:19.509Z,99893.52
2022-10-19T19:37:49.437Z,99890.05
2022-10-19T19:40:19.250Z,99893.73
2022-10-19T19:42:49.257Z,99888.98
2022-10-19T19:45:20.658Z,99893.52
2022-10-19T19:47:52.618Z,99907.53
2022-10-19T19:50:21.545Z,99906.16
2022-10-19T19:52:52.275Z,99897.09
2022-10-19T19:55:23.485Z,99903.63
2022-10-19T19:57:54.231Z,99905.42
2022-10-19T20:00:25.012Z,99903.73
2022-10-19T20:02:56.272Z,99904.26
2022-10-19T20:05:28.262Z,99909.31
2022-10-19T20:07:57.839Z,99907.00
2022-10-19T20:10:28.504Z,99901.09
2022-10-19T20:12:58.961Z,99896.95
2022-10-19T20:15:27.832Z,99907.80
2022-10-19T20:17:58.393Z,99912.64
2022-10-19T20:20:29.172Z,99910.84
2022-10-19T20:22:58.797Z,99913.47
2022-10-19T20:25:29.005Z,99917.47
2022-10-19T20:27:58.871Z,99926.63
2022-10-19T20:30:28.857Z,99927.94
2022-10-19T20:32:59.303Z,99926.23
2022-10-19T20:35:33.060Z,99916.75
2022-10-19T20:38:03.217Z,99913.91
2022-10-19T20:40:33.352Z,99915.80
2022-10-19T20:43:02.654Z,99916.32
2022-10-19T20:45:34.197Z,99912.42
2022-10-19T20:48:03.868Z,99917.98
2022-10-19T20:50:32.863Z,99913.66
2022-10-19T20:53:05.512Z,99919.42
2022-10-19T20:55:35.881Z,99920.59
2022-10-19T20:58:05.567Z,99918.91
2022-10-19T21:00:35.528Z,99922.16
2022-10-19T21:03:04.574Z,99926.59
2022-10-19T21:05:38.507Z,99936.69
2022-10-19T21:08:09.522Z,99938.87
2022-10-19T21:10:40.760Z,99941.92
2022-10-19T21:13:12.011Z,99945.75
2022-10-19T21:15:42.022Z,99940.65
2022-10-19T21:18:11.197Z,99946.60
2022-10-19T21:20:41.133Z,99950.02
2022-10-19T21:23:10.904Z,99945.23
2022-10-19T21:25:41.005Z,99954.39
2022-10-19T21:28:10.649Z,99955.71
2022-10-19T21:30:45.629Z,99951.69
2022-10-19T21:33:15.674Z,99965.22
2022-10-19T21:35:45.956Z,99960.23
2022-10-19T21:38:17.027Z,99964.79
2022-10-19T21:40:46.370Z,99969.87
2022-10-19T21:43:16.478Z,99972.88
2022-10-19T21:45:45.557Z,99974.24
2022-10-19T21:48:14.512Z,99979.92
2022-10-19T21:50:43.759Z,99976.41
2022-10-19T21:53:13.130Z,99982.61
2022-10-19T21:55:43.611Z,99988.84
2022-10-19T21:58:14.029Z,99996.30
2022-10-19T22:00:44.109Z,99997.73
2022-10-19T22:05:52.636Z,100001.41
2022-10-19T22:08:22.349Z,100002.31
2022-10-19T22:10:53.274Z,100013.47
2022-10-19T22:13:24.376Z,100011.70
2022-10-19T22:15:53.851Z,99999.15
2022-10-19T22:18:26.416Z,100006.16
2022-10-19T22:20:56.420Z,100015.53
2022-10-19T22:23:26.022Z,100010.59
2022-10-19T22:25:55.889Z,100012.14
2022-10-19T22:28:27.739Z,100015.91
2022-10-19T22:30:58.689Z,100016.75
2022-10-19T22:33:29.495Z,100017.45
2022-10-19T22:36:00.630Z,100022.82
2022-10-19T22:38:32.286Z,100034.48
2022-10-19T22:41:57.182Z,100045.28
2022-10-19T22:44:44.703Z,100044.16
2022-10-19T22:47:14.154Z,100039.34
2022-10-19T22:49:43.589Z,100052.54
2022-10-19T22:52:16.250Z,100052.44
2022-10-19T22:54:45.827Z,100057.08
2022-10-19T22:57:15.253Z,100062.89
2022-10-19T22:59:45.929Z,100072.62
2022-10-19T23:02:15.907Z,100069.59
2022-10-19T23:04:46.763Z,100080.52
2022-10-19T23:07:16.749Z,100073.45
2022-10-19T23:09:47.605Z,100080.50
2022-10-19T23:12:17.832Z,100088.36
2022-10-19T23:14:48.090Z,100089.78
2022-10-19T23:17:19.085Z,100093.22
2022-10-19T23:19:50.082Z,100098.72
2022-10-19T23:22:19.119Z,100103.84
2022-10-19T23:24:48.424Z,100103.86
2022-10-19T23:27:17.752Z,100108.30
2022-10-19T23:29:47.344Z,100116.82
2022-10-19T23:32:17.482Z,100109.37
2022-10-19T23:34:48.442Z,100115.66
2022-10-19T23:37:18.358Z,100117.88
2022-10-19T23:39:48.246Z,100115.52
2022-10-19T23:42:17.552Z,100110.27
2022-10-19T23:44:47.418Z,100112.50
2022-10-19T23:47:17.397Z,100112.50
2022-10-19T23:49:46.657Z,100121.68
2022-10-19T23:52:16.157Z,100122.03
2022-10-19T23:54:45.151Z,100121.71
2022-10-19T23:57:13.993Z,100124.95
2022-10-19T23:59:43.986Z,100121.05
